Time,TemperatureF,DewpointF,PressureIn,WindDirection,WindDirectionDegrees,WindSpeedMPH,WindSpeedGustMPH,Humidity,HourlyPrecipIn,Conditions,Clouds,dailyrainin,SoftwareType,DateUTC
2013-01-12 00:02:00,26.2,18.8,29.94,North,350,0.0,0.0,73,0.00,,,0.00,VWS V12.08,2013-01-11 23:02:00,
2013-01-12 00:07:00,26.1,18.6,29.94,NNW,346,0.0,0.0,73,0.00,,,0.00,VWS V12.08,2013-01-11 23:07:00,
2013-01-12 00:12:00,25.9,18.4,29.94,West,281,0.0,0.0,73,0.00,,,0.00,VWS V12.08,2013-01-11 23:12:00,
2013-01-12 00:17:00,26.1,18.6,29.94,NNW,327,0.0,0.0,73,0.00,,,0.00,VWS V12.08,2013-01-11 23:17:00,
2013-01-12 00:22:00,26.4,19.0,29.94,NW,325,0.0,0.0,73,0.00,,,0.00,VWS V12.08,2013-01-11 23:22:00,
2013-01-12 00:27:00,26.4,19.0,29.94,North,357,0.0,0.0,73,0.00,,,0.00,VWS V12.08,2013-01-11 23:27:00,
2013-01-12 00:32:00,26.2,18.8,29.94,North,0,0.0,0.0,73,0.00,,,0.00,VWS V12.08,2013-01-11 23:32:00,
2013-01-12 00:37:00,26.1,18.6,29.94,NW,306,0.0,0.0,73,0.00,,,0.00,VWS V12.08,2013-01-11 23:37:00,
2013-01-12 00:42:00,25.9,18.4,29.94,NW,305,0.0,0.0,73,0.00,,,0.00,VWS V12.08,2013-01-11 23:42:00,
2013-01-12 00:47:00,25.9,18.4,29.94,NW,314,0.0,0.0,73,0.00,,,0.00,VWS V12.08,2013-01-11 23:47:00,
2013-01-12 00:52:00,25.9,18.4,29.94,West,276,0.0,0.0,73,0.00,,,0.00,VWS V12.08,2013-01-11 23:52:00,
2013-01-12 00:57:00,26.1,18.6,29.94,WNW,293,0.0,0.0,73,0.00,,,0.00,VWS V12.08,2013-01-11 23:57:00,
2013-01-12 01:02:00,26.2,18.8,29.94,West,276,0.0,0.0,73,0.00,,,0.00,VWS V12.08,2013-01-12 00:02:00,
2013-01-12 01:07:00,26.4,19.0,29.94,NW,324,0.0,0.0,73,0.00,,,0.00,VWS V12.08,2013-01-12 00:07:00,
2013-01-12 01:12:00,26.6,19.1,29.94,NW,311,0.0,0.0,73,0.00,,,0.00,VWS V12.08,2013-01-12 00:12:00,
2013-01-12 01:17:00,26.6,19.1,29.94,West,268,0.0,0.0,73,0.00,,,0.00,VWS V12.08,2013-01-12 00:17:00,
2013-01-12 01:22:00,26.6,19.1,29.94,NW,313,0.0,0.0,73,0.00,,,0.00,VWS V12.08,2013-01-12 00:22:00,
2013-01-12 01:27:00,26.6,19.1,29.94,WNW,285,0.0,0.0,73,0.00,,,0.00,VWS V12.08,2013-01-12 00:27:00,
2013-01-12 01:32:00,26.4,19.0,29.94,West,276,0.0,0.0,73,0.00,,,0.00,VWS V12.08,2013-01-12 00:32:00,
2013-01-12 01:37:00,26.2,18.8,29.94,WNW,291,0.0,0.0,73,0.00,,,0.00,VWS V12.08,2013-01-12 00:37:00,
2013-01-12 01:42:00,26.1,18.6,29.94,WNW,288,0.0,0.0,73,0.00,,,0.00,VWS V12.08,2013-01-12 00:42:00,
2013-01-12 01:47:00,25.9,18.4,29.94,NW,308,0.0,0.0,73,0.00,,,0.00,VWS V12.08,2013-01-12 00:47:00,
2013-01-12 01:52:00,25.7,17.9,29.94,West,260,0.0,0.0,72,0.00,,,0.00,VWS V12.08,2013-01-12 00:52:00,
2013-01-12 01:57:00,25.7,18.3,29.94,WNW,283,0.0,0.0,73,0.00,,,0.00,VWS V12.08,2013-01-12 00:57:00,
2013-01-12 02:02:00,25.7,18.3,29.94,WSW,258,0.0,0.0,73,0.00,,,0.00,VWS V12.08,2013-01-12 01:02:00,
2013-01-12 02:07:00,25.7,18.3,29.97,WSW,256,0.0,0.0,73,0.00,,,0.00,VWS V12.08,2013-01-12 01:07:00,
2013-01-12 02:12:00,25.7,18.3,29.97,WNW,302,0.0,0.0,73,0.00,,,0.00,VWS V12.08,2013-01-12 01:12:00,
2013-01-12 02:17:00,26.1,18.6,29.97,WNW,284,0.0,0.0,73,0.00,,,0.00,VWS V12.08,2013-01-12 01:17:00,
2013-01-12 02:22:00,26.2,18.8,29.97,WNW,294,0.0,0.0,73,0.00,,,0.00,VWS V12.08,2013-01-12 01:22:00,
2013-01-12 02:27:00,26.2,18.8,29.97,West,270,0.0,0.0,73,0.00,,,0.00,VWS V12.08,2013-01-12 01:27:00,
2013-01-12 02:32:00,26.2,18.8,29.97,WNW,297,0.0,0.0,73,0.00,,,0.00,VWS V12.08,2013-01-12 01:32:00,
2013-01-12 02:37:00,26.1,18.6,29.97,West,281,0.0,0.0,73,0.00,,,0.00,VWS V12.08,2013-01-12 01:37:00,
2013-01-12 02:42:00,26.1,18.6,29.97,WSW,255,0.0,0.0,73,0.00,,,0.00,VWS V12.08,2013-01-12 01:42:00,
2013-01-12 02:47:00,25.9,18.4,29.97,WNW,303,0.0,0.0,73,0.00,,,0.00,VWS V12.08,2013-01-12 01:47:00,
2013-01-12 02:52:00,25.9,18.4,29.94,SW,233,0.0,0.0,73,0.00,,,0.00,VWS V12.08,2013-01-12 01:52:00,
2013-01-12 02:57:00,25.9,18.4,29.94,WSW,257,0.0,0.0,73,0.00,,,0.00,VWS V12.08,2013-01-12 01:57:00,
2013-01-12 03:02:00,25.7,18.3,29.94,WSW,250,0.0,0.0,73,0.00,,,0.00,VWS V12.08,2013-01-12 02:02:00,
2013-01-12 03:07:00,25.7,17.9,29.97,West,266,0.0,0.0,72,0.00,,,0.00,VWS V12.08,2013-01-12 02:07:00,
2013-01-12 03:12:00,25.5,17.8,29.97,WSW,240,0.0,0.0,72,0.00,,,0.00,VWS V12.08,2013-01-12 02:12:00,
2013-01-12 03:17:00,25.3,17.6,29.97,WSW,256,0.0,0.0,72,0.00,,,0.00,VWS V12.08,2013-01-12 02:17:00,
2013-01-12 03:22:00,25.3,17.6,29.94,WSW,252,0.0,0.0,72,0.00,,,0.00,VWS V12.08,2013-01-12 02:22:00,
2013-01-12 03:27:00,25.3,17.6,29.94,WNW,290,0.0,0.0,72,0.00,,,0.00,VWS V12.08,2013-01-12 02:27:00,
2013-01-12 03:32:00,25.2,17.4,29.94,West,278,0.0,0.0,72,0.00,,,0.00,VWS V12.08,2013-01-12 02:32:00,
2013-01-12 03:37:00,25.2,17.4,29.94,West,259,0.0,0.0,72,0.00,,,0.00,VWS V12.08,2013-01-12 02:37:00,
2013-01-12 03:42:00,25.2,17.4,29.94,WSW,247,0.0,0.0,72,0.00,,,0.00,VWS V12.08,2013-01-12 02:42:00,
2013-01-12 03:47:00,25.2,17.4,29.94,West,280,0.0,0.0,72,0.00,,,0.00,VWS V12.08,2013-01-12 02:47:00,
2013-01-12 03:52:00,25.2,17.4,29.97,NW,316,0.0,0.0,72,0.00,,,0.00,VWS V12.08,2013-01-12 02:52:00,
2013-01-12 03:57:00,25.2,17.4,29.97,West,274,0.0,0.0,72,0.00,,,0.00,VWS V12.08,2013-01-12 02:57:00,
2013-01-12 04:02:00,25.2,17.4,29.97,NNW,334,0.0,0.0,72,0.00,,,0.00,VWS V12.08,2013-01-12 03:02:00,
2013-01-12 04:07:00,25.3,17.6,29.94,WNW,299,0.0,0.0,72,0.00,,,0.00,VWS V12.08,2013-01-12 03:07:00,
2013-01-12 04:12:00,25.5,17.8,29.94,WNW,291,0.0,0.0,72,0.00,,,0.00,VWS V12.08,2013-01-12 03:12:00,
2013-01-12 04:17:00,25.3,17.6,29.94,NW,312,0.0,0.0,72,0.00,,,0.00,VWS V12.08,2013-01-12 03:17:00,
2013-01-12 04:22:00,25.2,17.4,29.97,NNW,327,0.0,0.0,72,0.00,,,0.00,VWS V12.08,2013-01-12 03:22:00,
2013-01-12 04:27:00,25.0,17.2,29.97,West,279,0.0,0.0,72,0.00,,,0.00,VWS V12.08,2013-01-12 03:27:00,
2013-01-12 04:32:00,24.8,17.1,29.97,WNW,296,0.0,0.0,72,0.00,,,0.00,VWS V12.08,2013-01-12 03:32:00,
2013-01-12 04:37:00,24.4,16.7,29.97,WNW,294,0.0,0.0,72,0.00,,,0.00,VWS V12.08,2013-01-12 03:37:00,
2013-01-12 04:42:00,24.4,16.7,29.97,West,272,0.0,0.0,72,0.00,,,0.00,VWS V12.08,2013-01-12 03:42:00,
2013-01-12 04:47:00,24.3,16.5,29.97,NW,314,0.0,0.0,72,0.00,,,0.00,VWS V12.08,2013-01-12 03:47:00,
2013-01-12 04:52:00,24.4,16.7,29.97,WNW,287,0.0,0.0,72,0.00,,,0.00,VWS V12.08,2013-01-12 03:52:00,
2013-01-12 04:57:00,24.8,17.1,29.97,NW,313,0.0,0.0,72,0.00,,,0.00,VWS V12.08,2013-01-12 03:57:00,
2013-01-12 05:02:00,25.2,17.4,29.97,NW,307,0.0,0.0,72,0.00,,,0.00,VWS V12.08,2013-01-12 04:02:00,
2013-01-12 05:07:00,25.3,17.6,29.97,WNW,303,0.0,0.0,72,0.00,,,0.00,VWS V12.08,2013-01-12 04:07:00,
2013-01-12 05:12:00,25.3,17.6,29.97,WNW,294,0.0,0.0,72,0.00,,,0.00,VWS V12.08,2013-01-12 04:12:00,
2013-01-12 05:17:00,25.3,17.3,29.97,NNW,333,0.0,0.0,71,0.00,,,0.00,VWS V12.08,2013-01-12 04:17:00,
2013-01-12 05:22:00,25.2,17.1,29.97,NW,314,0.0,0.0,71,0.00,,,0.00,VWS V12.08,2013-01-12 04:22:00,
2013-01-12 05:27:00,24.8,16.8,29.97,WNW,294,0.0,0.0,71,0.00,,,0.00,VWS V12.08,2013-01-12 04:27:00,
2013-01-12 05:32:00,24.6,16.6,29.97,WNW,290,0.0,0.0,71,0.00,,,0.00,VWS V12.08,2013-01-12 04:32:00,
2013-01-12 05:37:00,24.4,16.4,29.97,NW,313,0.0,0.0,71,0.00,,,0.00,VWS V12.08,2013-01-12 04:37:00,
2013-01-12 05:42:00,24.1,16.0,29.97,WNW,287,0.0,0.0,71,0.00,,,0.00,VWS V12.08,2013-01-12 04:42:00,
2013-01-12 05:47:00,24.1,16.0,29.97,WNW,285,0.0,0.0,71,0.00,,,0.00,VWS V12.08,2013-01-12 04:47:00,
2013-01-12 05:52:00,24.1,16.0,29.97,West,273,0.0,0.0,71,0.00,,,0.00,VWS V12.08,2013-01-12 04:52:00,
2013-01-12 05:57:00,24.1,16.0,29.97,WNW,291,0.0,0.0,71,0.00,,,0.00,VWS V12.08,2013-01-12 04:57:00,
2013-01-12 06:00:00,24.1,16.0,29.97,NNW,330,0.0,0.0,71,0.00,,,0.00,VWS V12.08,2013-01-12 05:00:00,
2013-01-12 06:01:00,24.1,16.0,29.97,WNW,299,0.0,0.0,71,0.00,,,0.00,VWS V12.08,2013-01-12 05:01:00,
2013-01-12 06:03:00,24.3,16.2,29.97,West,269,0.0,0.0,71,0.00,,,0.00,VWS V12.08,2013-01-12 05:03:00,
2013-01-12 06:08:00,24.4,16.4,29.97,NW,320,0.0,0.0,71,0.00,,,0.00,VWS V12.08,2013-01-12 05:08:00,
2013-01-12 06:13:00,24.4,16.4,29.97,North,0,0.0,0.0,71,0.00,,,0.00,VWS V12.08,2013-01-12 05:13:00,
2013-01-12 06:18:00,24.4,16.4,29.97,NW,307,0.0,0.0,71,0.00,,,0.00,VWS V12.08,2013-01-12 05:18:00,
2013-01-12 06:23:00,24.6,16.6,29.97,NNW,331,0.0,0.0,71,0.00,,,0.00,VWS V12.08,2013-01-12 05:23:00,
2013-01-12 06:28:00,24.6,16.6,29.97,North,0,0.0,0.0,71,0.00,,,0.00,VWS V12.08,2013-01-12 05:28:00,
2013-01-12 06:33:00,24.4,16.4,29.97,North,353,0.0,0.0,71,0.00,,,0.00,VWS V12.08,2013-01-12 05:33:00,
2013-01-12 06:38:00,24.3,16.2,29.97,WNW,291,0.0,0.0,71,0.00,,,0.00,VWS V12.08,2013-01-12 05:38:00,
2013-01-12 06:43:00,23.9,15.9,29.97,WNW,291,0.0,0.0,71,0.00,,,0.00,VWS V12.08,2013-01-12 05:43:00,
2013-01-12 06:48:00,23.5,15.5,29.97,WNW,291,0.0,0.0,71,0.00,,,0.00,VWS V12.08,2013-01-12 05:48:00,
2013-01-12 06:53:00,23.0,15.0,29.97,NW,325,0.0,0.0,71,0.00,,,0.00,VWS V12.08,2013-01-12 05:53:00,
2013-01-12 06:58:00,22.6,14.7,29.97,North,0,0.0,0.0,71,0.00,,,0.00,VWS V12.08,2013-01-12 05:58:00,
2013-01-12 07:03:00,22.6,14.7,29.97,NNW,336,0.0,0.0,71,0.00,,,0.00,VWS V12.08,2013-01-12 06:03:00,
2013-01-12 07:08:00,22.8,14.8,29.97,North,357,0.0,0.0,71,0.00,,,0.00,VWS V12.08,2013-01-12 06:08:00,
2013-01-12 07:13:00,23.0,15.3,29.97,North,353,0.0,0.0,72,0.00,,,0.00,VWS V12.08,2013-01-12 06:13:00,
2013-01-12 07:18:00,23.2,15.2,29.97,NNW,336,0.0,0.0,71,0.00,,,0.00,VWS V12.08,2013-01-12 06:18:00,
2013-01-12 07:23:00,23.4,15.4,29.97,NNW,336,0.0,0.0,71,0.00,,,0.00,VWS V12.08,2013-01-12 06:23:00,
2013-01-12 07:28:00,23.4,15.4,29.97,NNW,331,0.0,0.0,71,0.00,,,0.00,VWS V12.08,2013-01-12 06:28:00,
2013-01-12 07:33:00,23.5,15.9,29.97,NW,322,0.0,0.0,72,0.00,,,0.00,VWS V12.08,2013-01-12 06:33:00,
2013-01-12 07:38:00,23.9,16.2,29.97,West,264,0.0,0.0,72,0.00,,,0.00,VWS V12.08,2013-01-12 06:38:00,
2013-01-12 07:43:00,24.3,16.5,29.97,WNW,293,0.0,0.0,72,0.00,,,0.00,VWS V12.08,2013-01-12 06:43:00,
2013-01-12 07:48:00,24.3,16.5,29.97,WSW,253,0.0,0.0,72,0.00,,,0.00,VWS V12.08,2013-01-12 06:48:00,
2013-01-12 07:53:00,24.3,16.5,29.97,NNW,334,0.0,0.0,72,0.00,,,0.00,VWS V12.08,2013-01-12 06:53:00,
2013-01-12 07:58:00,24.1,16.4,29.97,WSW,254,0.0,0.0,72,0.00,,,0.00,VWS V12.08,2013-01-12 06:58:00,
2013-01-12 08:03:00,24.1,16.4,29.97,SW,233,0.0,0.0,72,0.00,,,0.00,VWS V12.08,2013-01-12 07:03:00,
2013-01-12 08:08:00,24.4,16.7,29.97,WNW,289,0.0,0.0,72,0.00,,,0.00,VWS V12.08,2013-01-12 07:08:00,
2013-01-12 08:13:00,25.2,17.4,29.97,WNW,293,0.0,0.0,72,0.00,,,0.00,VWS V12.08,2013-01-12 07:13:00,
2013-01-12 08:18:00,25.5,17.8,29.97,NNW,339,0.0,0.0,72,0.00,,,0.00,VWS V12.08,2013-01-12 07:18:00,
2013-01-12 08:23:00,25.7,17.9,29.97,NW,325,0.0,0.0,72,0.00,,,0.00,VWS V12.08,2013-01-12 07:23:00,
2013-01-12 08:28:00,25.9,18.1,29.97,WSW,247,0.0,0.0,72,0.00,,,0.00,VWS V12.08,2013-01-12 07:28:00,
2013-01-12 08:33:00,26.2,18.5,30.00,WSW,249,0.0,0.0,72,0.00,,,0.00,VWS V12.08,2013-01-12 07:33:00,
2013-01-12 08:38:00,26.8,19.0,30.00,West,259,0.0,0.0,72,0.00,,,0.00,VWS V12.08,2013-01-12 07:38:00,
2013-01-12 08:43:00,27.1,19.3,30.00,WSW,241,0.0,0.0,72,0.00,,,0.00,VWS V12.08,2013-01-12 07:43:00,
2013-01-12 08:48:00,27.9,20.0,30.00,WSW,243,0.0,0.0,72,0.00,,,0.00,VWS V12.08,2013-01-12 07:48:00,
2013-01-12 08:53:00,28.4,20.5,30.00,SW,231,0.0,0.0,72,0.00,,,0.00,VWS V12.08,2013-01-12 07:53:00,
2013-01-12 08:58:00,28.8,20.6,30.00,SW,229,0.0,0.0,71,0.00,,,0.00,VWS V12.08,2013-01-12 07:58:00,
2013-01-12 09:03:00,28.8,20.2,30.00,SW,234,0.0,0.0,70,0.00,,,0.00,VWS V12.08,2013-01-12 08:03:00,
2013-01-12 09:08:00,28.6,20.0,30.00,WSW,249,0.0,0.0,70,0.00,,,0.00,VWS V12.08,2013-01-12 08:08:00,
2013-01-12 09:13:00,28.6,20.0,30.00,WSW,249,0.0,0.0,70,0.00,,,0.00,VWS V12.08,2013-01-12 08:13:00,
2013-01-12 09:18:00,28.6,20.0,30.00,SW,223,0.0,0.0,70,0.00,,,0.00,VWS V12.08,2013-01-12 08:18:00,
2013-01-12 09:23:00,28.8,19.9,30.00,SW,233,0.0,0.0,69,0.00,,,0.00,VWS V12.08,2013-01-12 08:23:00,
2013-01-12 09:28:00,28.9,20.1,30.00,WSW,243,0.0,0.0,69,0.00,,,0.00,VWS V12.08,2013-01-12 08:28:00,
2013-01-12 09:33:00,29.3,20.4,30.00,SW,225,0.0,0.0,69,0.00,,,0.00,VWS V12.08,2013-01-12 08:33:00,
2013-01-12 09:38:00,29.7,20.8,30.00,West,267,0.0,0.0,69,0.00,,,0.00,VWS V12.08,2013-01-12 08:38:00,
2013-01-12 09:43:00,30.0,20.8,30.00,WSW,249,0.0,0.0,68,0.00,,,0.00,VWS V12.08,2013-01-12 08:43:00,
2013-01-12 09:48:00,30.4,21.1,30.00,WSW,250,0.0,0.0,68,0.00,,,0.00,VWS V12.08,2013-01-12 08:48:00,
2013-01-12 09:53:00,30.7,21.1,30.00,WSW,241,0.0,0.0,67,0.00,,,0.00,VWS V12.08,2013-01-12 08:53:00,
2013-01-12 09:58:00,30.7,20.7,30.00,West,276,0.0,0.0,66,0.00,,,0.00,VWS V12.08,2013-01-12 08:58:00,
2013-01-12 10:03:00,31.1,21.1,30.00,WSW,244,0.0,0.0,66,0.00,,,0.00,VWS V12.08,2013-01-12 09:03:00,
2013-01-12 10:08:00,31.1,20.7,30.00,West,262,0.0,0.0,65,0.00,,,0.00,VWS V12.08,2013-01-12 09:08:00,
2013-01-12 10:13:00,31.3,20.5,30.00,WNW,297,0.0,0.0,64,0.00,,,0.00,VWS V12.08,2013-01-12 09:13:00,
2013-01-12 10:18:00,31.5,20.7,30.00,WSW,256,0.0,0.0,64,0.00,,,0.00,VWS V12.08,2013-01-12 09:18:00,
2013-01-12 10:23:00,31.6,20.5,30.00,WSW,245,0.0,0.0,63,0.00,,,0.00,VWS V12.08,2013-01-12 09:23:00,
2013-01-12 10:28:00,32.0,20.9,30.00,West,271,0.0,0.0,63,0.00,,,0.00,VWS V12.08,2013-01-12 09:28:00,
2013-01-12 10:33:00,32.4,20.8,30.00,WSW,242,0.0,0.0,62,0.00,,,0.00,VWS V12.08,2013-01-12 09:33:00,
2013-01-12 10:38:00,32.2,20.3,30.00,SW,219,0.0,0.0,61,0.00,,,0.00,VWS V12.08,2013-01-12 09:38:00,
2013-01-12 10:43:00,32.2,19.9,30.00,WSW,244,0.0,0.0,60,0.00,,,0.00,VWS V12.08,2013-01-12 09:43:00,
2013-01-12 10:48:00,32.0,19.7,30.00,WSW,258,0.0,0.0,60,0.00,,,0.00,VWS V12.08,2013-01-12 09:48:00,
2013-01-12 10:53:00,31.8,19.5,30.00,WNW,286,0.0,0.0,60,0.00,,,0.00,VWS V12.08,2013-01-12 09:53:00,
2013-01-12 10:58:00,31.6,19.4,30.00,WNW,287,0.0,0.0,60,0.00,,,0.00,VWS V12.08,2013-01-12 09:58:00,
2013-01-12 11:03:00,32.0,19.7,30.00,WSW,238,0.0,0.0,60,0.00,,,0.00,VWS V12.08,2013-01-12 10:03:00,
2013-01-12 11:08:00,32.0,19.3,30.00,WNW,289,0.0,0.0,59,0.00,,,0.00,VWS V12.08,2013-01-12 10:08:00,
2013-01-12 11:13:00,31.8,19.1,30.00,West,264,0.0,0.0,59,0.00,,,0.00,VWS V12.08,2013-01-12 10:13:00,
2013-01-12 11:18:00,31.6,19.0,30.00,West,277,0.0,0.0,59,0.00,,,0.00,VWS V12.08,2013-01-12 10:18:00,
2013-01-12 11:23:00,31.5,18.8,30.00,West,260,0.0,0.0,59,0.00,,,0.00,VWS V12.08,2013-01-12 10:23:00,
2013-01-12 11:28:00,31.1,18.5,30.00,WSW,239,0.0,0.0,59,0.00,,,0.00,VWS V12.08,2013-01-12 10:28:00,
2013-01-12 11:33:00,30.9,18.3,30.00,WSW,250,0.0,0.0,59,0.00,,,0.00,VWS V12.08,2013-01-12 10:33:00,
2013-01-12 11:38:00,30.7,18.1,30.00,West,265,0.0,0.0,59,0.00,,,0.00,VWS V12.08,2013-01-12 10:38:00,
2013-01-12 11:43:00,30.6,18.0,30.00,West,259,0.0,0.0,59,0.00,,,0.00,VWS V12.08,2013-01-12 10:43:00,
2013-01-12 11:48:00,30.4,17.8,30.00,SW,236,0.0,0.0,59,0.00,,,0.00,VWS V12.08,2013-01-12 10:48:00,
2013-01-12 11:53:00,30.4,17.8,30.00,WSW,242,0.0,0.0,59,0.00,,,0.00,VWS V12.08,2013-01-12 10:53:00,
2013-01-12 11:58:00,30.6,18.0,30.00,WNW,288,0.0,0.0,59,0.00,,,0.00,VWS V12.08,2013-01-12 10:58:00,
2013-01-12 12:03:00,30.7,18.1,30.00,WNW,284,0.0,0.0,59,0.00,,,0.00,VWS V12.08,2013-01-12 11:03:00,
2013-01-12 12:08:00,30.9,18.3,30.00,West,269,0.0,0.0,59,0.00,,,0.00,VWS V12.08,2013-01-12 11:08:00,
2013-01-12 12:13:00,31.1,18.5,30.00,West,278,0.0,0.0,59,0.00,,,0.00,VWS V12.08,2013-01-12 11:13:00,
2013-01-12 12:18:00,31.1,18.5,30.00,WSW,247,0.0,0.0,59,0.00,,,0.00,VWS V12.08,2013-01-12 11:18:00,
2013-01-12 12:23:00,31.3,18.6,30.00,West,259,0.0,0.0,59,0.00,,,0.00,VWS V12.08,2013-01-12 11:23:00,
2013-01-12 12:28:00,31.6,19.0,30.00,WSW,238,0.0,0.0,59,0.00,,,0.00,VWS V12.08,2013-01-12 11:28:00,
2013-01-12 12:33:00,31.8,19.1,30.00,WNW,301,0.0,0.0,59,0.00,,,0.00,VWS V12.08,2013-01-12 11:33:00,
2013-01-12 12:38:00,31.6,19.0,30.00,WSW,258,0.0,0.0,59,0.00,,,0.00,VWS V12.08,2013-01-12 11:38:00,
2013-01-12 12:43:00,31.5,18.8,30.00,West,270,0.0,0.0,59,0.00,,,0.00,VWS V12.08,2013-01-12 11:43:00,
2013-01-12 12:48:00,31.5,18.8,30.00,SW,236,0.0,0.0,59,0.00,,,0.00,VWS V12.08,2013-01-12 11:48:00,
2013-01-12 12:53:00,31.6,19.0,30.00,West,259,0.0,0.0,59,0.00,,,0.00,VWS V12.08,2013-01-12 11:53:00,
2013-01-12 12:58:00,32.0,18.9,30.00,West,280,0.0,0.0,58,0.00,,,0.00,VWS V12.08,2013-01-12 11:58:00,
2013-01-12 13:03:00,32.0,18.9,30.00,WSW,237,0.0,0.0,58,0.00,,,0.00,VWS V12.08,2013-01-12 12:03:00,
2013-01-12 13:08:00,32.0,18.9,30.00,WNW,295,0.0,0.0,58,0.00,,,0.00,VWS V12.08,2013-01-12 12:08:00,
2013-01-12 13:13:00,32.0,18.9,30.00,West,281,0.0,5.8,58,0.00,,,0.00,VWS V12.08,2013-01-12 12:13:00,
2013-01-12 13:18:00,32.2,19.1,30.00,West,262,0.0,5.8,58,0.00,,,0.00,VWS V12.08,2013-01-12 12:18:00,
2013-01-12 13:23:00,32.2,19.1,30.00,NW,308,0.0,0.0,58,0.00,,,0.00,VWS V12.08,2013-01-12 12:23:00,
2013-01-12 13:28:00,32.0,18.9,30.00,WNW,292,0.0,0.0,58,0.00,,,0.00,VWS V12.08,2013-01-12 12:28:00,
2013-01-12 13:33:00,32.0,18.9,30.00,West,272,0.0,0.0,58,0.00,,,0.00,VWS V12.08,2013-01-12 12:33:00,
2013-01-12 13:38:00,32.0,18.5,30.00,WNW,301,0.0,0.0,57,0.00,,,0.00,VWS V12.08,2013-01-12 12:38:00,
2013-01-12 13:43:00,32.0,18.1,30.00,WSW,255,0.0,0.0,56,0.00,,,0.00,VWS V12.08,2013-01-12 12:43:00,
2013-01-12 13:48:00,31.8,17.9,30.00,West,280,0.0,0.0,56,0.00,,,0.00,VWS V12.08,2013-01-12 12:48:00,
2013-01-12 13:53:00,31.6,17.3,30.00,West,281,0.0,0.0,55,0.00,,,0.00,VWS V12.08,2013-01-12 12:53:00,
2013-01-12 13:58:00,31.6,17.3,30.00,West,263,0.0,0.0,55,0.00,,,0.00,VWS V12.08,2013-01-12 12:58:00,
2013-01-12 14:03:00,31.6,17.3,30.00,West,274,0.0,0.0,55,0.00,,,0.00,VWS V12.08,2013-01-12 13:03:00,
2013-01-12 14:08:00,31.5,17.2,30.00,WSW,258,0.0,0.0,55,0.00,,,0.00,VWS V12.08,2013-01-12 13:08:00,
2013-01-12 14:13:00,31.5,17.2,30.00,West,265,0.0,0.0,55,0.00,,,0.00,VWS V12.08,2013-01-12 13:13:00,
2013-01-12 14:18:00,31.3,17.0,30.00,West,278,0.0,0.0,55,0.00,,,0.00,VWS V12.08,2013-01-12 13:18:00,
2013-01-12 14:23:00,31.3,17.0,30.00,West,261,0.0,0.0,55,0.00,,,0.00,VWS V12.08,2013-01-12 13:23:00,
2013-01-12 14:28:00,31.1,16.8,30.00,SW,224,0.0,0.0,55,0.00,,,0.00,VWS V12.08,2013-01-12 13:28:00,
2013-01-12 14:33:00,31.1,16.8,30.00,WSW,239,0.0,0.0,55,0.00,,,0.00,VWS V12.08,2013-01-12 13:33:00,
2013-01-12 14:38:00,31.1,16.8,30.00,WSW,242,0.0,0.0,55,0.00,,,0.00,VWS V12.08,2013-01-12 13:38:00,
2013-01-12 14:43:00,31.1,16.8,30.00,WSW,248,0.0,0.0,55,0.00,,,0.00,VWS V12.08,2013-01-12 13:43:00,
2013-01-12 14:48:00,31.1,16.8,30.00,SW,228,0.0,0.0,55,0.00,,,0.00,VWS V12.08,2013-01-12 13:48:00,
2013-01-12 14:53:00,31.1,16.8,30.00,SW,233,0.0,0.0,55,0.00,,,0.00,VWS V12.08,2013-01-12 13:53:00,
2013-01-12 14:58:00,31.1,16.8,30.00,West,268,0.0,0.0,55,0.00,,,0.00,VWS V12.08,2013-01-12 13:58:00,
2013-01-12 15:03:00,31.1,16.8,30.00,West,269,0.0,0.0,55,0.00,,,0.00,VWS V12.08,2013-01-12 14:03:00,
2013-01-12 15:08:00,31.1,16.8,30.00,West,266,0.0,0.0,55,0.00,,,0.00,VWS V12.08,2013-01-12 14:08:00,
2013-01-12 15:13:00,30.9,17.1,30.00,WSW,240,0.0,0.0,56,0.00,,,0.00,VWS V12.08,2013-01-12 14:13:00,
2013-01-12 15:18:00,30.7,16.9,30.03,West,259,0.0,0.0,56,0.00,,,0.00,VWS V12.08,2013-01-12 14:18:00,
2013-01-12 15:23:00,30.7,16.9,30.03,WSW,244,0.0,0.0,56,0.00,,,0.00,VWS V12.08,2013-01-12 14:23:00,
2013-01-12 15:28:00,30.6,17.1,30.03,West,260,0.0,0.0,57,0.00,,,0.00,VWS V12.08,2013-01-12 14:28:00,
2013-01-12 15:33:00,30.6,17.6,30.00,WSW,247,0.0,0.0,58,0.00,,,0.00,VWS V12.08,2013-01-12 14:33:00,
2013-01-12 15:38:00,30.6,17.6,30.00,WSW,249,0.0,0.0,58,0.00,,,0.00,VWS V12.08,2013-01-12 14:38:00,
2013-01-12 15:43:00,30.4,17.4,30.00,West,266,0.0,0.0,58,0.00,,,0.00,VWS V12.08,2013-01-12 14:43:00,
2013-01-12 15:48:00,30.2,17.6,30.00,WSW,241,0.0,0.0,59,0.00,,,0.00,VWS V12.08,2013-01-12 14:48:00,
2013-01-12 15:53:00,30.2,17.6,30.00,WSW,257,0.0,0.0,59,0.00,,,0.00,VWS V12.08,2013-01-12 14:53:00,
2013-01-12 15:58:00,30.0,17.4,30.00,WSW,241,0.0,0.0,59,0.00,,,0.00,VWS V12.08,2013-01-12 14:58:00,
2013-01-12 16:03:00,29.8,17.3,30.03,WSW,240,0.0,0.0,59,0.00,,,0.00,VWS V12.08,2013-01-12 15:03:00,
2013-01-12 16:08:00,29.7,17.1,30.03,WSW,239,0.0,0.0,59,0.00,,,0.00,VWS V12.08,2013-01-12 15:08:00,
2013-01-12 16:13:00,29.5,16.9,30.03,SW,236,0.0,0.0,59,0.00,,,0.00,VWS V12.08,2013-01-12 15:13:00,
2013-01-12 16:18:00,29.5,16.9,30.00,WSW,256,0.0,0.0,59,0.00,,,0.00,VWS V12.08,2013-01-12 15:18:00,
2013-01-12 16:23:00,29.5,16.9,30.00,SW,234,0.0,0.0,59,0.00,,,0.00,VWS V12.08,2013-01-12 15:23:00,
2013-01-12 16:28:00,29.5,16.9,30.00,WSW,245,0.0,0.0,59,0.00,,,0.00,VWS V12.08,2013-01-12 15:28:00,
2013-01-12 16:33:00,29.3,16.8,30.03,WSW,245,0.0,0.0,59,0.00,,,0.00,VWS V12.08,2013-01-12 15:33:00,
2013-01-12 16:38:00,29.3,16.8,30.03,WSW,245,0.0,0.0,59,0.00,,,0.00,VWS V12.08,2013-01-12 15:38:00,
2013-01-12 16:43:00,29.3,16.8,30.03,WSW,245,0.0,0.0,59,0.00,,,0.00,VWS V12.08,2013-01-12 15:43:00,
2013-01-12 16:48:00,29.1,16.6,30.03,WSW,245,0.0,0.0,59,0.00,,,0.00,VWS V12.08,2013-01-12 15:48:00,
2013-01-12 16:53:00,28.9,16.4,30.03,WSW,245,0.0,0.0,59,0.00,,,0.00,VWS V12.08,2013-01-12 15:53:00,
2013-01-12 16:58:00,28.8,16.6,30.03,WSW,245,0.0,0.0,60,0.00,,,0.00,VWS V12.08,2013-01-12 15:58:00,
2013-01-12 17:03:00,28.8,16.6,30.03,WSW,245,0.0,0.0,60,0.00,,,0.00,VWS V12.08,2013-01-12 16:03:00,
2013-01-12 17:08:00,28.8,16.6,30.03,WSW,245,0.0,0.0,60,0.00,,,0.00,VWS V12.08,2013-01-12 16:08:00,
2013-01-12 17:13:00,28.8,16.6,30.03,WSW,245,0.0,0.0,60,0.00,,,0.00,VWS V12.08,2013-01-12 16:13:00,
2013-01-12 17:18:00,28.8,16.6,30.03,WSW,245,0.0,0.0,60,0.00,,,0.00,VWS V12.08,2013-01-12 16:18:00,
2013-01-12 17:23:00,28.8,16.6,30.03,WSW,245,0.0,0.0,60,0.00,,,0.00,VWS V12.08,2013-01-12 16:23:00,
2013-01-12 17:29:00,28.8,16.6,30.03,WSW,245,0.0,0.0,60,0.00,,,0.00,VWS V12.08,2013-01-12 16:29:00,
2013-01-12 17:34:00,28.8,17.0,30.03,WSW,245,0.0,0.0,61,0.00,,,0.00,VWS V12.08,2013-01-12 16:34:00,
2013-01-12 17:39:00,28.9,17.2,30.03,WSW,245,0.0,0.0,61,0.00,,,0.00,VWS V12.08,2013-01-12 16:39:00,
2013-01-12 17:44:00,28.9,17.2,30.03,WSW,245,0.0,0.0,61,0.00,,,0.00,VWS V12.08,2013-01-12 16:44:00,
2013-01-12 17:49:00,28.9,17.2,30.03,WSW,245,0.0,0.0,61,0.00,,,0.00,VWS V12.08,2013-01-12 16:49:00,
2013-01-12 17:54:00,29.1,17.4,30.03,WSW,245,0.0,0.0,61,0.00,,,0.00,VWS V12.08,2013-01-12 16:54:00,
2013-01-12 17:59:00,29.1,17.7,30.03,SW,214,3.1,5.8,62,0.00,,,0.00,VWS V12.08,2013-01-12 16:59:00,
2013-01-12 18:04:00,28.9,17.6,30.03,WSW,237,5.8,5.8,62,0.00,,,0.00,VWS V12.08,2013-01-12 17:04:00,
2013-01-12 18:09:00,28.9,17.6,30.03,WSW,254,4.0,6.3,62,0.00,,,0.00,VWS V12.08,2013-01-12 17:09:00,
2013-01-12 18:14:00,28.6,17.2,30.03,WSW,244,4.0,6.3,62,0.00,,,0.00,VWS V12.08,2013-01-12 17:14:00,
2013-01-12 18:19:00,28.6,17.6,30.03,WSW,242,3.1,7.6,63,0.00,,,0.00,VWS V12.08,2013-01-12 17:19:00,
2013-01-12 18:24:00,28.6,18.0,30.03,SW,215,4.0,6.3,64,0.00,,,0.00,VWS V12.08,2013-01-12 17:24:00,
2013-01-12 18:29:00,28.4,18.1,30.03,SW,227,4.0,7.6,65,0.00,,,0.00,VWS V12.08,2013-01-12 17:29:00,
2013-01-12 18:34:00,28.4,18.5,30.03,SSW,210,4.0,5.8,66,0.00,,,0.00,VWS V12.08,2013-01-12 17:34:00,
2013-01-12 18:39:00,28.4,18.5,30.03,SW,222,3.1,5.8,66,0.00,,,0.00,VWS V12.08,2013-01-12 17:39:00,
2013-01-12 18:44:00,28.4,18.9,30.03,WSW,244,2.7,4.9,67,0.00,,,0.00,VWS V12.08,2013-01-12 17:44:00,
2013-01-12 18:49:00,28.4,19.2,30.03,SW,230,4.0,4.9,68,0.00,,,0.00,VWS V12.08,2013-01-12 17:49:00,
2013-01-12 18:54:00,28.4,19.5,30.03,WSW,241,2.7,4.9,69,0.00,,,0.00,VWS V12.08,2013-01-12 17:54:00,
2013-01-12 18:59:00,28.4,19.5,30.03,SSW,213,4.0,4.9,69,0.00,,,0.00,VWS V12.08,2013-01-12 17:59:00,
2013-01-12 19:04:00,28.6,19.7,30.03,SSW,206,4.0,5.4,69,0.00,,,0.00,VWS V12.08,2013-01-12 18:04:00,
2013-01-12 19:09:00,28.6,20.0,30.03,SW,219,2.2,5.4,70,0.00,,,0.00,VWS V12.08,2013-01-12 18:09:00,
2013-01-12 19:14:00,28.6,20.0,30.03,SSW,212,3.1,3.6,70,0.00,,,0.00,VWS V12.08,2013-01-12 18:14:00,
2013-01-12 19:19:00,28.6,20.0,30.03,SSW,212,3.1,3.6,70,0.00,,,0.00,VWS V12.08,2013-01-12 18:19:00,
2013-01-12 19:24:00,28.4,20.2,30.03,SSW,212,2.7,4.0,71,0.00,,,0.00,VWS V12.08,2013-01-12 18:24:00,
2013-01-12 19:29:00,28.4,20.2,30.03,SSW,212,0.0,4.0,71,0.00,,,0.00,VWS V12.08,2013-01-12 18:29:00,
2013-01-12 19:34:00,28.4,20.2,30.03,SW,230,2.2,4.9,71,0.00,,,0.00,VWS V12.08,2013-01-12 18:34:00,
2013-01-12 19:39:00,28.4,20.2,30.03,SW,236,2.7,4.9,71,0.00,,,0.00,VWS V12.08,2013-01-12 18:39:00,
2013-01-12 19:44:00,28.4,20.5,30.03,SW,227,2.2,4.0,72,0.00,,,0.00,VWS V12.08,2013-01-12 18:44:00,
2013-01-12 19:49:00,28.4,20.5,30.03,SW,232,3.1,5.4,72,0.00,,,0.00,VWS V12.08,2013-01-12 18:49:00,
2013-01-12 19:54:00,28.4,20.5,30.03,West,263,2.2,5.4,72,0.00,,,0.00,VWS V12.08,2013-01-12 18:54:00,
2013-01-12 19:59:00,28.4,20.9,30.03,SW,228,2.7,5.4,73,0.00,,,0.00,VWS V12.08,2013-01-12 18:59:00,
2013-01-12 20:04:00,28.4,20.9,30.03,SW,214,2.7,4.0,73,0.00,,,0.00,VWS V12.08,2013-01-12 19:04:00,
2013-01-12 20:09:00,28.4,20.9,30.03,SW,214,3.6,4.0,73,0.00,,,0.00,VWS V12.08,2013-01-12 19:09:00,
2013-01-12 20:14:00,28.4,20.9,30.03,SW,214,3.1,4.0,73,0.00,,,0.00,VWS V12.08,2013-01-12 19:14:00,
2013-01-12 20:19:00,28.4,21.2,30.06,SW,215,2.7,4.0,74,0.00,,,0.00,VWS V12.08,2013-01-12 19:19:00,
2013-01-12 20:24:00,28.4,21.2,30.06,SSW,213,2.7,4.9,74,0.00,,,0.00,VWS V12.08,2013-01-12 19:24:00,
2013-01-12 20:29:00,28.4,21.2,30.06,SSW,213,3.1,4.9,74,0.00,,,0.00,VWS V12.08,2013-01-12 19:29:00,
2013-01-12 20:34:00,28.4,21.2,30.06,SSW,213,0.0,4.0,74,0.00,,,0.00,VWS V12.08,2013-01-12 19:34:00,
2013-01-12 20:39:00,28.4,21.5,30.06,SW,230,2.2,5.4,75,0.00,,,0.00,VWS V12.08,2013-01-12 19:39:00,
2013-01-12 20:44:00,28.6,21.7,30.06,South,191,0.0,4.0,75,0.00,,,0.00,VWS V12.08,2013-01-12 19:44:00,
2013-01-12 20:49:00,28.6,21.7,30.06,WSW,240,3.1,4.0,75,0.00,,,0.00,VWS V12.08,2013-01-12 19:49:00,
2013-01-12 20:54:00,28.8,21.9,30.06,WSW,240,2.7,3.6,75,0.00,,,0.00,VWS V12.08,2013-01-12 19:54:00,
2013-01-12 20:59:00,28.8,21.9,30.06,WSW,240,3.6,4.0,75,0.00,,,0.00,VWS V12.08,2013-01-12 19:59:00,
2013-01-12 21:04:00,28.8,22.2,30.06,SW,232,2.7,4.0,76,0.00,,,0.00,VWS V12.08,2013-01-12 20:04:00,
2013-01-12 21:09:00,28.9,22.3,30.06,SW,218,2.7,4.0,76,0.00,,,0.00,VWS V12.08,2013-01-12 20:09:00,
2013-01-12 21:14:00,28.9,22.3,30.06,SW,218,2.7,3.1,76,0.00,,,0.00,VWS V12.08,2013-01-12 20:14:00,
2013-01-12 21:19:00,28.9,22.3,30.06,SW,218,0.0,4.0,76,0.00,,,0.00,VWS V12.08,2013-01-12 20:19:00,
2013-01-12 21:24:00,28.9,22.6,30.06,SW,218,3.1,3.1,77,0.00,,,0.00,VWS V12.08,2013-01-12 20:24:00,
2013-01-12 21:29:00,28.9,22.6,30.06,SW,218,2.7,3.6,77,0.00,,,0.00,VWS V12.08,2013-01-12 20:29:00,
2013-01-12 21:34:00,28.9,22.6,30.06,SW,218,2.7,3.1,77,0.00,,,0.00,VWS V12.08,2013-01-12 20:34:00,
2013-01-12 21:39:00,28.9,22.6,30.06,SW,218,3.1,3.6,77,0.00,,,0.00,VWS V12.08,2013-01-12 20:39:00,
2013-01-12 21:44:00,28.9,23.0,30.06,SW,218,0.0,3.1,78,0.00,,,0.00,VWS V12.08,2013-01-12 20:44:00,
2013-01-12 21:49:00,28.9,23.0,30.06,SW,218,2.7,4.0,78,0.00,,,0.00,VWS V12.08,2013-01-12 20:49:00,
2013-01-12 21:54:00,28.9,23.0,30.06,SW,218,2.2,3.6,78,0.00,,,0.00,VWS V12.08,2013-01-12 20:54:00,
2013-01-12 21:59:00,28.9,23.0,30.06,SW,218,2.7,3.6,78,0.00,,,0.00,VWS V12.08,2013-01-12 20:59:00,
2013-01-12 22:04:00,29.1,23.1,30.06,SW,218,2.7,4.0,78,0.00,,,0.00,VWS V12.08,2013-01-12 21:04:00,
2013-01-12 22:09:00,29.1,23.4,30.06,SW,218,2.7,4.0,79,0.00,,,0.00,VWS V12.08,2013-01-12 21:09:00,
2013-01-12 22:14:00,29.1,23.4,30.06,SW,218,2.7,3.6,79,0.00,,,0.00,VWS V12.08,2013-01-12 21:14:00,
2013-01-12 22:19:00,29.1,23.4,30.06,SW,218,2.2,4.0,79,0.00,,,0.00,VWS V12.08,2013-01-12 21:19:00,
2013-01-12 22:24:00,28.9,23.3,30.06,SW,218,2.7,3.1,79,0.00,,,0.00,VWS V12.08,2013-01-12 21:24:00,
2013-01-12 22:29:00,28.9,23.3,30.06,SW,218,0.0,3.1,79,0.00,,,0.00,VWS V12.08,2013-01-12 21:29:00,
2013-01-12 22:34:00,28.9,23.6,30.06,SW,218,0.0,0.0,80,0.00,,,0.00,VWS V12.08,2013-01-12 21:34:00,
2013-01-12 22:39:00,28.9,23.6,30.06,SW,218,0.0,0.0,80,0.00,,,0.00,VWS V12.08,2013-01-12 21:39:00,
2013-01-12 22:44:00,29.1,23.7,30.06,SW,218,0.0,0.0,80,0.00,,,0.00,VWS V12.08,2013-01-12 21:44:00,
2013-01-12 22:49:00,29.1,23.7,30.06,SW,218,2.2,2.7,80,0.00,,,0.00,VWS V12.08,2013-01-12 21:49:00,
2013-01-12 22:54:00,29.1,23.7,30.06,SW,218,0.0,0.0,80,0.00,,,0.00,VWS V12.08,2013-01-12 21:54:00,
2013-01-12 22:59:00,29.1,23.7,30.06,SW,218,2.7,3.1,80,0.00,,,0.00,VWS V12.08,2013-01-12 21:59:00,
2013-01-12 23:04:00,29.1,24.0,30.06,SW,218,2.7,3.1,81,0.00,,,0.00,VWS V12.08,2013-01-12 22:04:00,
2013-01-12 23:09:00,29.1,24.0,30.06,SW,218,0.0,3.6,81,0.00,,,0.00,VWS V12.08,2013-01-12 22:09:00,
2013-01-12 23:14:00,29.3,24.2,30.06,SW,218,0.0,2.7,81,0.00,,,0.00,VWS V12.08,2013-01-12 22:14:00,
2013-01-12 23:19:00,29.3,24.2,30.06,SW,218,3.1,3.6,81,0.00,,,0.00,VWS V12.08,2013-01-12 22:19:00,
2013-01-12 23:24:00,29.3,24.2,30.06,SW,218,2.2,3.1,81,0.00,,,0.00,VWS V12.08,2013-01-12 22:24:00,
2013-01-12 23:29:00,29.3,24.2,30.06,SW,218,2.2,3.6,81,0.00,,,0.00,VWS V12.08,2013-01-12 22:29:00,
2013-01-12 23:34:00,29.3,24.5,30.06,SW,218,2.7,3.1,82,0.00,,,0.00,VWS V12.08,2013-01-12 22:34:00,
2013-01-12 23:39:00,29.3,24.5,30.06,SW,218,2.7,3.1,82,0.00,,,0.00,VWS V12.08,2013-01-12 22:39:00,
2013-01-12 23:44:00,29.3,24.5,30.06,SW,218,2.2,3.6,82,0.00,,,0.00,VWS V12.08,2013-01-12 22:44:00,
2013-01-12 23:49:00,29.3,24.5,30.06,SW,218,2.7,3.6,82,0.00,,,0.00,VWS V12.08,2013-01-12 22:49:00,
2013-01-12 23:54:00,29.3,24.5,30.06,SW,218,2.2,3.1,82,0.00,,,0.00,VWS V12.08,2013-01-12 22:54:00,
2013-01-12 23:59:00,29.3,24.5,30.06,SW,218,2.2,3.1,82,0.00,,,0.00,VWS V12.08,2013-01-12 22:59:00,